createdAt,value
2022-07-29T00:02:13.008Z,2.47
2022-07-29T00:04:39.637Z,3.33
2022-07-29T00:07:07.654Z,2.75
2022-07-29T00:09:42.960Z,3.22
2022-07-29T00:12:25.146Z,2.70
2022-07-29T00:14:52.946Z,2.97
2022-07-29T00:17:19.614Z,3.00
2022-07-29T00:19:46.196Z,3.10
2022-07-29T00:22:14.959Z,2.75
2022-07-29T00:24:41.703Z,2.70
2022-07-29T00:27:08.325Z,3.20
2022-07-29T00:29:35.412Z,3.13
2022-07-29T00:32:02.610Z,3.05
2022-07-29T00:34:29.384Z,2.83
2022-07-29T00:36:56.221Z,3.40
2022-07-29T00:39:30.612Z,2.95
2022-07-29T00:41:57.205Z,3.35
2022-07-29T00:44:23.848Z,2.58
2022-07-29T00:46:50.483Z,2.30
2022-07-29T00:49:17.306Z,2.80
2022-07-29T00:51:44.057Z,3.00
2022-07-29T00:54:10.725Z,2.75
2022-07-29T00:56:38.773Z,2.42
2022-07-29T00:59:05.409Z,2.58
2022-07-29T01:01:32.020Z,2.63
2022-07-29T01:03:58.671Z,2.42
2022-07-29T01:06:26.001Z,2.67
2022-07-29T01:08:52.869Z,2.75
2022-07-29T01:11:19.915Z,2.35
2022-07-29T01:13:48.847Z,2.73
2022-07-29T01:16:21.263Z,2.53
2022-07-29T01:18:53.961Z,2.80
2022-07-29T01:21:36.974Z,2.53
2022-07-29T01:24:20.557Z,2.50
2022-07-29T01:26:53.237Z,2.50
2022-07-29T01:29:38.932Z,2.28
2022-07-29T01:32:09.604Z,2.67
2022-07-29T01:34:58.589Z,2.50
2022-07-29T01:37:29.396Z,2.17
2022-07-29T01:39:58.373Z,2.10
2022-07-29T01:42:30.485Z,2.25
2022-07-29T01:45:02.705Z,2.22
2022-07-29T01:47:35.759Z,2.42
2022-07-29T01:50:06.983Z,2.65
2022-07-29T01:52:38.762Z,2.30
2022-07-29T01:55:10.454Z,2.65
2022-07-29T01:57:40.341Z,2.47
2022-07-29T02:00:10.203Z,2.40
2022-07-29T02:02:39.972Z,2.67
2022-07-29T02:05:09.593Z,2.33
2022-07-29T02:07:37.777Z,1.92
2022-07-29T02:10:06.680Z,2.28
2022-07-29T02:12:34.168Z,2.30
2022-07-29T02:15:02.816Z,2.17
2022-07-29T02:17:36.171Z,2.30
2022-07-29T02:20:09.868Z,2.25
2022-07-29T02:22:40.282Z,2.33
2022-07-29T02:25:14.147Z,2.45
2022-07-29T02:27:42.432Z,2.33
2022-07-29T02:30:10.024Z,2.10
2022-07-29T02:32:38.936Z,2.22
2022-07-29T02:35:09.460Z,2.20
2022-07-29T02:37:37.817Z,1.90
2022-07-29T02:40:06.955Z,2.72
2022-07-29T02:42:36.245Z,1.80
2022-07-29T02:45:02.900Z,1.83
2022-07-29T02:47:43.679Z,2.20
2022-07-29T02:50:13.549Z,2.17
2022-07-29T02:52:43.818Z,2.10
2022-07-29T02:55:17.370Z,2.20
2022-07-29T02:57:54.664Z,2.15
2022-07-29T03:00:24.567Z,2.20
2022-07-29T03:02:55.751Z,2.25
2022-07-29T03:05:23.680Z,3.03
2022-07-29T03:07:54.313Z,2.30
2022-07-29T03:10:21.892Z,2.50
2022-07-29T03:12:49.544Z,2.30
2022-07-29T03:18:13.145Z,2.50
2022-07-29T03:20:40.233Z,2.23
2022-07-29T03:23:06.890Z,2.10
2022-07-29T03:25:33.764Z,2.20
2022-07-29T03:28:00.487Z,2.47
2022-07-29T03:30:27.370Z,2.35
2022-07-29T03:32:54.069Z,2.30
2022-07-29T03:35:24.664Z,1.98
2022-07-29T03:37:51.289Z,1.95
2022-07-29T03:40:23.519Z,1.90
2022-07-29T03:42:52.408Z,1.98
2022-07-29T03:45:20.460Z,2.40
2022-07-29T03:47:57.038Z,2.30
2022-07-29T03:50:28.866Z,2.40
2022-07-29T03:52:55.574Z,2.40
2022-07-29T03:55:22.502Z,2.40
2022-07-29T03:57:50.283Z,2.03
2022-07-29T04:00:17.332Z,2.40
2022-07-29T04:02:44.805Z,2.30
2022-07-29T04:05:13.161Z,1.65
2022-07-29T04:07:41.224Z,2.35
2022-07-29T04:10:08.524Z,2.23
2022-07-29T04:12:35.377Z,2.47
2022-07-29T04:15:02.296Z,2.25
2022-07-29T04:17:29.015Z,1.92
2022-07-29T04:19:55.615Z,2.22
2022-07-29T04:22:22.248Z,2.10
2022-07-29T04:24:51.129Z,1.77
2022-07-29T04:27:17.760Z,2.30
2022-07-29T04:29:56.850Z,2.03
2022-07-29T04:32:24.407Z,1.77
2022-07-29T04:34:51.056Z,1.90
2022-07-29T04:37:17.652Z,2.30
2022-07-29T04:39:44.252Z,1.70
2022-07-29T04:42:12.243Z,1.85
2022-07-29T04:44:40.011Z,1.85
2022-07-29T04:47:10.037Z,1.90
2022-07-29T04:49:38.845Z,2.30
2022-07-29T04:52:06.556Z,2.03
2022-07-29T04:54:33.255Z,2.35
2022-07-29T04:56:59.832Z,1.73
2022-07-29T04:59:27.924Z,1.90
2022-07-29T05:01:54.620Z,1.80
2022-07-29T05:04:21.467Z,1.80
2022-07-29T05:06:48.211Z,1.63
2022-07-29T05:12:09.605Z,1.77
2022-07-29T05:14:39.635Z,2.22
2022-07-29T05:17:06.234Z,2.70
2022-07-29T05:19:32.995Z,2.13
2022-07-29T05:21:59.655Z,1.90
2022-07-29T05:24:26.412Z,2.00
2022-07-29T05:26:53.035Z,2.08
2022-07-29T05:29:43.842Z,2.13
2022-07-29T05:32:07.912Z,1.67
2022-07-29T05:34:34.608Z,1.88
2022-07-29T05:37:01.243Z,1.90
2022-07-29T05:39:46.594Z,2.00
2022-07-29T05:45:11.225Z,2.05
2022-07-29T05:47:39.210Z,2.00
2022-07-29T05:50:07.079Z,2.10
2022-07-29T05:52:33.740Z,2.10
2022-07-29T05:55:00.324Z,2.28
2022-07-29T05:57:26.936Z,1.85
2022-07-29T05:59:53.565Z,2.00
2022-07-29T06:02:20.319Z,2.27
2022-07-29T06:04:48.403Z,2.30
2022-07-29T06:07:15.029Z,2.00
2022-07-29T06:09:41.668Z,2.05
2022-07-29T06:12:09.120Z,2.38
2022-07-29T06:14:40.084Z,1.57
2022-07-29T06:17:07.115Z,2.42
2022-07-29T06:19:35.616Z,2.83
2022-07-29T06:22:04.166Z,2.50
2022-07-29T06:24:30.851Z,2.58
2022-07-29T06:26:57.466Z,2.50
2022-07-29T06:29:24.075Z,2.13
2022-07-29T06:31:51.427Z,2.70
2022-07-29T06:34:18.230Z,2.28
2022-07-29T06:36:45.993Z,2.92
2022-07-29T06:39:14.166Z,2.37
2022-07-29T06:41:41.070Z,2.40
2022-07-29T06:44:07.666Z,2.67
2022-07-29T06:46:43.741Z,2.78
2022-07-29T06:49:10.572Z,2.42
2022-07-29T06:51:39.527Z,2.23
2022-07-29T06:54:06.219Z,2.13
2022-07-29T06:56:39.464Z,2.40
2022-07-29T06:59:07.692Z,2.67
2022-07-29T07:01:34.384Z,2.38
2022-07-29T07:04:01.115Z,2.43
2022-07-29T07:06:27.695Z,2.60
2022-07-29T07:08:54.936Z,2.40
2022-07-29T07:11:21.578Z,2.63
2022-07-29T07:13:49.601Z,3.00
2022-07-29T07:16:16.467Z,3.33
2022-07-29T07:18:43.091Z,2.72
2022-07-29T07:21:09.740Z,2.70
2022-07-29T07:23:39.108Z,2.80
2022-07-29T07:26:05.747Z,3.00
2022-07-29T07:28:32.350Z,2.30
2022-07-29T07:31:00.439Z,2.92
2022-07-29T07:33:27.037Z,2.47
2022-07-29T07:35:53.671Z,2.60
2022-07-29T07:38:20.758Z,2.85
2022-07-29T07:40:47.366Z,3.00
2022-07-29T07:43:13.998Z,2.50
2022-07-29T07:45:40.620Z,3.03
2022-07-29T07:48:08.675Z,2.90
2022-07-29T07:50:35.268Z,2.80
2022-07-29T07:53:02.020Z,2.77
2022-07-29T07:55:28.739Z,2.33
2022-07-29T07:57:55.475Z,2.95
2022-07-29T08:00:23.663Z,2.30
2022-07-29T08:02:51.210Z,2.10
2022-07-29T08:05:19.517Z,2.70
2022-07-29T08:07:47.166Z,2.60
2022-07-29T08:10:14.126Z,2.67
2022-07-29T08:12:40.787Z,2.20
2022-07-29T08:15:08.819Z,2.72
2022-07-29T08:17:35.644Z,2.60
2022-07-29T08:20:02.297Z,2.30
2022-07-29T08:22:30.994Z,2.50
2022-07-29T08:24:57.595Z,2.55
2022-07-29T08:27:42.878Z,3.10
2022-07-29T08:30:10.306Z,2.80
2022-07-29T08:32:53.143Z,2.50
2022-07-29T08:35:20.726Z,2.88
2022-07-29T08:37:48.920Z,2.95
2022-07-29T08:40:15.851Z,3.33
2022-07-29T08:42:43.020Z,3.17
2022-07-29T08:45:10.423Z,2.90
2022-07-29T08:47:39.076Z,2.47
2022-07-29T08:50:06.676Z,2.92
2022-07-29T08:52:39.568Z,2.85
2022-07-29T08:55:09.471Z,2.27
2022-07-29T08:57:37.315Z,3.15
2022-07-29T09:00:11.359Z,3.08
2022-07-29T09:02:41.266Z,2.47
2022-07-29T09:05:08.576Z,2.67
2022-07-29T09:07:35.993Z,2.60
2022-07-29T09:10:04.819Z,2.92
2022-07-29T09:12:37.837Z,2.58
2022-07-29T09:15:05.500Z,2.50
2022-07-29T09:17:41.002Z,2.67
2022-07-29T09:20:10.638Z,2.70
2022-07-29T09:22:41.720Z,3.33
2022-07-29T09:25:08.943Z,3.08
2022-07-29T09:27:36.956Z,3.00
2022-07-29T09:30:06.268Z,3.78
2022-07-29T09:32:33.038Z,2.40
2022-07-29T09:35:16.103Z,2.67
2022-07-29T09:37:43.061Z,2.70
2022-07-29T09:40:14.111Z,2.58
2022-07-29T09:42:42.273Z,2.83
2022-07-29T09:45:09.944Z,2.60
2022-07-29T09:47:43.395Z,3.30
2022-07-29T09:50:09.993Z,3.03
2022-07-29T09:52:46.507Z,2.83
2022-07-29T09:55:18.285Z,3.50
2022-07-29T09:57:47.326Z,3.03
2022-07-29T10:00:16.484Z,2.83
2022-07-29T10:02:45.928Z,3.20
2022-07-29T10:05:21.714Z,3.00
2022-07-29T10:07:53.742Z,3.10
2022-07-29T10:10:23.033Z,2.73
2022-07-29T10:12:53.463Z,2.50
2022-07-29T10:15:21.788Z,2.50
2022-07-29T10:17:49.107Z,3.10
2022-07-29T10:20:16.980Z,2.60
2022-07-29T10:22:52.881Z,2.43
2022-07-29T10:25:21.422Z,2.83
2022-07-29T10:27:49.414Z,2.47
2022-07-29T10:30:18.308Z,3.00
2022-07-29T10:33:09.783Z,3.08
2022-07-29T10:35:55.274Z,2.27
2022-07-29T10:38:45.631Z,2.60
2022-07-29T10:41:32.467Z,2.45
2022-07-29T10:44:17.418Z,2.63
2022-07-29T10:46:48.173Z,2.63
2022-07-29T10:49:18.327Z,2.90
2022-07-29T10:52:06.503Z,3.08
2022-07-29T10:54:47.677Z,3.05
2022-07-29T10:57:32.211Z,2.60
2022-07-29T11:00:31.012Z,2.70
2022-07-29T11:02:59.559Z,2.60
2022-07-29T11:05:39.917Z,3.25
2022-07-29T11:08:32.094Z,3.25
2022-07-29T11:11:37.269Z,2.75
2022-07-29T11:14:04.492Z,2.95
2022-07-29T11:17:02.265Z,2.73
2022-07-29T11:19:30.858Z,2.90
2022-07-29T11:24:50.057Z,2.70
2022-07-29T11:27:20.260Z,2.55
2022-07-29T11:29:55.534Z,2.57
2022-07-29T11:32:24.179Z,2.90
2022-07-29T11:35:17.382Z,2.58
2022-07-29T11:37:45.995Z,2.67
2022-07-29T11:40:19.492Z,3.60
2022-07-29T11:42:52.173Z,3.23
2022-07-29T11:45:44.957Z,2.80
2022-07-29T11:48:28.046Z,2.72
2022-07-29T11:50:58.720Z,2.60
2022-07-29T11:53:25.911Z,2.90
2022-07-29T11:55:58.403Z,3.43
2022-07-29T11:58:26.252Z,3.05
2022-07-29T12:00:55.581Z,2.90
2022-07-29T12:03:35.138Z,2.97
2022-07-29T12:06:12.101Z,2.75
2022-07-29T12:08:42.326Z,2.73
2022-07-29T12:11:16.539Z,3.58
2022-07-29T12:13:43.230Z,2.80
2022-07-29T12:16:09.874Z,2.67
2022-07-29T12:18:41.569Z,2.90
2022-07-29T12:21:09.610Z,2.97
2022-07-29T12:23:39.347Z,2.90
2022-07-29T12:26:07.634Z,3.03
2022-07-29T12:28:38.267Z,3.15
2022-07-29T12:31:05.826Z,3.22
2022-07-29T12:33:32.654Z,2.80
2022-07-29T12:36:12.827Z,3.05
2022-07-29T12:38:46.329Z,3.00
2022-07-29T12:41:13.825Z,3.10
2022-07-29T12:43:53.292Z,3.17
2022-07-29T12:46:19.984Z,3.00
2022-07-29T12:48:51.617Z,3.30
2022-07-29T12:51:18.547Z,3.45
2022-07-29T12:54:05.701Z,2.97
2022-07-29T12:56:42.741Z,3.13
2022-07-29T12:59:17.724Z,3.00
2022-07-29T13:01:44.955Z,3.03
2022-07-29T13:04:11.696Z,3.55
2022-07-29T13:06:41.228Z,3.20
2022-07-29T13:09:12.177Z,3.83
2022-07-29T13:11:44.116Z,3.30
2022-07-29T13:14:29.982Z,2.88
2022-07-29T13:17:05.619Z,2.92
2022-07-29T13:19:40.315Z,3.47
2022-07-29T13:22:07.472Z,3.33
2022-07-29T13:24:47.996Z,3.10
2022-07-29T13:27:15.446Z,3.65
2022-07-29T13:29:42.070Z,3.40
2022-07-29T13:32:11.905Z,3.28
2022-07-29T13:34:38.630Z,3.47
2022-07-29T13:37:05.297Z,3.60
2022-07-29T13:39:38.162Z,3.33
2022-07-29T13:42:10.782Z,3.40
2022-07-29T13:44:37.785Z,3.47
2022-07-29T13:47:04.608Z,2.92
2022-07-29T13:49:31.295Z,3.60
2022-07-29T13:51:58.139Z,3.47
2022-07-29T13:54:25.222Z,3.78
2022-07-29T13:56:55.169Z,3.45
2022-07-29T13:59:23.179Z,3.65
2022-07-29T14:01:49.895Z,3.40
2022-07-29T14:04:16.600Z,3.70
2022-07-29T14:06:43.430Z,3.28
2022-07-29T14:09:10.290Z,3.67
2022-07-29T14:11:37.006Z,3.67
2022-07-29T14:14:03.597Z,3.13
2022-07-29T14:16:31.648Z,3.70
2022-07-29T14:18:58.409Z,3.92
2022-07-29T14:21:25.185Z,3.25
2022-07-29T14:23:52.201Z,3.53
2022-07-29T14:26:21.609Z,3.03
2022-07-29T14:28:51.119Z,3.55
2022-07-29T14:31:18.014Z,3.33
2022-07-29T14:33:49.313Z,2.78
2022-07-29T14:36:16.434Z,3.75
2022-07-29T14:38:43.109Z,3.63
2022-07-29T14:41:09.884Z,3.40
2022-07-29T14:43:39.134Z,3.80
2022-07-29T14:46:08.445Z,3.75
2022-07-29T14:48:35.342Z,3.42
2022-07-29T14:51:05.078Z,3.43
2022-07-29T14:53:33.133Z,3.20
2022-07-29T14:56:15.033Z,3.55
2022-07-29T14:58:51.732Z,2.80
2022-07-29T15:01:18.910Z,3.30
2022-07-29T15:03:45.574Z,2.93
2022-07-29T15:06:13.696Z,3.20
2022-07-29T15:08:40.330Z,3.92
2022-07-29T15:11:06.984Z,4.07
2022-07-29T15:13:34.571Z,4.05
2022-07-29T15:16:01.313Z,3.33
2022-07-29T15:18:28.089Z,2.90
2022-07-29T15:20:54.897Z,3.38
2022-07-29T15:23:22.898Z,2.80
2022-07-29T15:25:49.560Z,6.50
2022-07-29T15:31:10.670Z,1.67
2022-07-29T15:33:37.353Z,2.00
2022-07-29T15:36:07.274Z,2.10
2022-07-29T15:38:35.285Z,2.15
2022-07-29T15:41:08.456Z,2.27
2022-07-29T15:43:35.153Z,2.72
2022-07-29T15:46:02.132Z,4.10
2022-07-29T15:48:29.005Z,3.97
2022-07-29T15:50:55.974Z,4.35
2022-07-29T15:53:23.762Z,4.60
2022-07-29T15:55:51.726Z,4.88
2022-07-29T15:58:18.560Z,6.85
2022-07-29T16:00:45.291Z,6.03
2022-07-29T16:03:12.154Z,6.13
2022-07-29T16:05:38.829Z,6.03
2022-07-29T16:08:06.031Z,4.82
2022-07-29T16:10:36.220Z,4.22
2022-07-29T16:13:04.235Z,4.13
2022-07-29T16:15:30.918Z,4.80
2022-07-29T16:17:57.598Z,4.40
2022-07-29T16:20:30.973Z,4.00
2022-07-29T16:22:57.593Z,4.18
2022-07-29T16:25:44.005Z,4.55
2022-07-29T16:28:12.386Z,4.32
2022-07-29T16:30:39.170Z,4.40
2022-07-29T16:33:08.368Z,5.20
2022-07-29T16:35:39.625Z,4.70
2022-07-29T16:38:06.878Z,5.93
2022-07-29T16:40:33.596Z,5.97
2022-07-29T16:43:00.232Z,5.30
2022-07-29T16:45:45.447Z,4.93
2022-07-29T16:48:13.180Z,4.95
2022-07-29T16:50:41.282Z,5.03
2022-07-29T16:53:10.901Z,4.70
2022-07-29T16:55:37.634Z,4.20
2022-07-29T16:58:04.727Z,4.72
2022-07-29T17:00:37.986Z,5.88
2022-07-29T17:03:05.155Z,6.32
2022-07-29T17:05:53.877Z,6.53
2022-07-29T17:08:18.897Z,6.33
2022-07-29T17:10:45.663Z,4.95
2022-07-29T17:13:12.322Z,5.13
2022-07-29T17:15:40.532Z,5.35
2022-07-29T17:18:12.550Z,5.50
2022-07-29T17:20:41.171Z,5.17
2022-07-29T17:23:07.877Z,5.57
2022-07-29T17:25:34.539Z,5.20
2022-07-29T17:28:01.400Z,4.78
2022-07-29T17:30:28.527Z,5.20
2022-07-29T17:32:56.702Z,5.30
2022-07-29T17:35:23.429Z,5.40
2022-07-29T17:37:50.030Z,5.60
2022-07-29T17:40:23.414Z,5.85
2022-07-29T17:42:50.186Z,5.25
2022-07-29T17:45:17.048Z,5.03
2022-07-29T17:47:43.734Z,4.80
2022-07-29T17:50:11.818Z,5.18
2022-07-29T17:52:38.493Z,4.85
2022-07-29T17:55:06.091Z,5.47
2022-07-29T17:57:32.710Z,5.27
2022-07-29T17:59:59.347Z,5.05
2022-07-29T18:02:26.581Z,5.63
2022-07-29T18:04:55.000Z,5.25
2022-07-29T18:07:23.025Z,4.43
2022-07-29T18:09:49.820Z,5.20
2022-07-29T18:12:16.473Z,5.43
2022-07-29T18:14:43.218Z,5.95
2022-07-29T18:17:09.875Z,5.38
2022-07-29T18:19:36.491Z,5.30
2022-07-29T18:22:05.135Z,4.43
2022-07-29T18:24:33.874Z,4.82
2022-07-29T18:27:00.899Z,4.65
2022-07-29T18:29:34.100Z,4.30
2022-07-29T18:32:00.749Z,4.53
2022-07-29T18:34:32.315Z,5.03
2022-07-29T18:36:59.592Z,5.13
2022-07-29T18:39:26.437Z,5.45
2022-07-29T18:41:54.505Z,5.43
2022-07-29T18:44:22.029Z,5.72
2022-07-29T18:46:49.434Z,5.40
2022-07-29T18:49:16.142Z,5.93
2022-07-29T18:51:42.842Z,5.95
2022-07-29T18:54:09.574Z,5.20
2022-07-29T18:56:36.733Z,5.90
2022-07-29T18:59:05.052Z,5.73
2022-07-29T19:01:32.287Z,5.78
2022-07-29T19:03:59.285Z,5.85
2022-07-29T19:06:26.159Z,6.32
2022-07-29T19:08:52.897Z,5.97
2022-07-29T19:11:19.514Z,5.23
2022-07-29T19:13:46.194Z,5.03
2022-07-29T19:16:14.710Z,4.60
2022-07-29T19:18:42.319Z,4.32
2022-07-29T19:21:09.236Z,4.78
2022-07-29T19:24:01.889Z,4.03
2022-07-29T19:26:23.028Z,4.75
2022-07-29T19:28:53.018Z,4.63
2022-07-29T19:31:21.145Z,4.15
2022-07-29T19:33:48.119Z,4.70
2022-07-29T19:36:14.734Z,4.73
2022-07-29T19:38:41.475Z,4.90
2022-07-29T19:41:08.221Z,4.60
2022-07-29T19:43:51.022Z,4.30
2022-07-29T19:46:21.561Z,4.15
2022-07-29T19:48:48.692Z,4.13
2022-07-29T19:51:17.593Z,4.00
2022-07-29T19:53:44.274Z,4.43
2022-07-29T19:56:11.013Z,4.53
2022-07-29T19:58:37.741Z,4.18
2022-07-29T20:01:10.381Z,3.40
2022-07-29T20:03:39.110Z,4.47
2022-07-29T20:06:05.950Z,4.88
2022-07-29T20:08:32.648Z,5.60
2022-07-29T20:10:59.274Z,4.93
2022-07-29T20:13:30.989Z,4.40
2022-07-29T20:15:57.737Z,4.50
2022-07-29T20:18:24.423Z,5.07
2022-07-29T20:20:52.657Z,4.45
2022-07-29T20:23:19.366Z,4.60
2022-07-29T20:25:46.029Z,3.93
2022-07-29T20:28:12.685Z,4.93
2022-07-29T20:30:39.387Z,4.25
2022-07-29T20:33:06.067Z,4.85
2022-07-29T20:35:32.871Z,5.10
2022-07-29T20:38:00.910Z,4.87
2022-07-29T20:40:28.118Z,5.20
2022-07-29T20:42:55.224Z,5.80
2022-07-29T20:45:23.421Z,6.18
2022-07-29T20:47:50.482Z,4.57
2022-07-29T20:50:17.246Z,5.17
2022-07-29T20:52:43.953Z,4.80
2022-07-29T20:55:12.027Z,5.70
2022-07-29T20:57:39.864Z,6.13
2022-07-29T21:00:07.996Z,5.32
2022-07-29T21:02:35.206Z,5.40
2022-07-29T21:05:01.917Z,5.18
2022-07-29T21:07:28.574Z,5.20
2022-07-29T21:09:55.260Z,5.47
2022-07-29T21:12:23.261Z,6.10
2022-07-29T21:14:49.926Z,5.53
2022-07-29T21:17:16.542Z,6.03
2022-07-29T21:19:43.235Z,6.90
2022-07-29T21:22:10.306Z,7.03
2022-07-29T21:24:36.964Z,7.00
2022-07-29T21:27:19.795Z,6.97
2022-07-29T21:29:48.660Z,6.93
2022-07-29T21:32:30.066Z,6.22
2022-07-29T21:34:57.210Z,6.13
2022-07-29T21:37:23.953Z,5.60
2022-07-29T21:39:50.639Z,6.57
2022-07-29T21:42:17.301Z,6.07
2022-07-29T21:44:44.006Z,6.28
2022-07-29T21:47:12.210Z,6.07
2022-07-29T21:49:39.039Z,7.10
2022-07-29T21:52:07.983Z,7.50
2022-07-29T21:54:35.661Z,7.93
2022-07-29T21:57:02.540Z,7.40
2022-07-29T21:59:29.622Z,7.45
2022-07-29T22:01:56.602Z,8.05
2022-07-29T22:04:24.765Z,7.73
2022-07-29T22:06:51.413Z,7.05
2022-07-29T22:09:18.140Z,7.55
2022-07-29T22:11:44.807Z,6.95
2022-07-29T22:14:11.478Z,7.68
2022-07-29T22:16:38.229Z,8.30
2022-07-29T22:19:04.902Z,8.57
2022-07-29T22:21:32.959Z,7.88
2022-07-29T22:24:00.631Z,8.18
2022-07-29T22:26:27.275Z,7.63
2022-07-29T22:28:53.926Z,9.37
2022-07-29T22:31:20.666Z,8.02
2022-07-29T22:33:50.140Z,7.03
2022-07-29T22:36:17.472Z,7.32
2022-07-29T22:38:49.109Z,8.32
2022-07-29T22:41:18.169Z,8.30
2022-07-29T22:43:44.824Z,7.57
2022-07-29T22:46:11.504Z,8.90
2022-07-29T22:48:38.730Z,8.23
2022-07-29T22:51:05.471Z,8.73
2022-07-29T22:53:32.078Z,9.73
2022-07-29T22:56:00.102Z,9.55
2022-07-29T22:58:27.242Z,9.43
2022-07-29T23:00:54.022Z,9.63
2022-07-29T23:03:20.824Z,9.48
2022-07-29T23:05:47.546Z,9.67
2022-07-29T23:08:14.182Z,10.27
2022-07-29T23:10:40.894Z,9.98
2022-07-29T23:13:11.498Z,10.30
2022-07-29T23:15:38.146Z,10.73
2022-07-29T23:18:04.889Z,9.37
2022-07-29T23:20:31.717Z,9.85
2022-07-29T23:22:58.360Z,9.63
2022-07-29T23:25:24.985Z,9.50
2022-07-29T23:27:51.757Z,9.57
2022-07-29T23:30:19.756Z,9.70
2022-07-29T23:32:46.372Z,9.48
2022-07-29T23:35:13.066Z,9.70
2022-07-29T23:37:39.753Z,9.10
2022-07-29T23:40:12.193Z,9.45
2022-07-29T23:42:41.286Z,10.23
2022-07-29T23:45:09.351Z,9.77
2022-07-29T23:47:37.433Z,9.73
2022-07-29T23:50:04.616Z,8.85
2022-07-29T23:52:31.287Z,8.98
2022-07-29T23:55:37.132Z,8.33
2022-07-29T23:57:44.553Z,9.00
